ADDS METAR Data INFO
IDs: Format: Raw Decoded Include TAF

Data at: 0508 UTC 23 May 2017

KHSG 230455Z AUTO 27009KT 10SM SCT065 BKN090 05/03 A3029 RMK AO2 T00510029
KHSG 230435Z AUTO 27009KT 10SM SCT075 SCT100 05/03 A3028 RMK AO2 T00500028
KHSG 230415Z AUTO 25006KT 10SM BKN090 05/03 A3028 RMK AO2 T00540025
KHSG 230355Z AUTO 31003KT 10SM SCT080 SCT100 05/02 A3028 RMK AO2 T00500024
KHSG 230335Z AUTO 05008KT 10SM SCT080 SCT110 08/03 A3029 RMK AO2 T00750025
KHSG 230315Z AUTO 36024G33KT 10SM SCT060 BKN080 OVC120 08/04 A3029 RMK AO2 T00800035
KHSG 230255Z AUTO 36020G26KT 10SM SCT050 SCT060 BKN110 11/01 A3028 RMK AO2 T01090006
KHSG 230235Z AUTO 31006KT 10SM SCT050 BKN065 OVC120 11/04 A3026 RMK AO2 T01110039
KHSG 230215Z AUTO 30004KT 10SM BKN060 11/04 A3025 RMK AO2 T01050040
KHSG 230155Z AUTO 28010G15KT 10SM BKN065 BKN090 12/04 A3023 RMK AO2 T01150040
KHSG 230135Z AUTO 29010G18KT 10SM BKN065 BKN090 13/03 A3023 RMK AO2 LTG DSNT SE T01250025
KHSG 230115Z AUTO 32011G19KT 10SM SCT065 BKN075 13/02 A3023 RMK AO2 T01300022
KHSG 230055Z AUTO 32013G19KT 10SM SCT075 13/02 A3023 RMK AO2 T01300019
KHSG 230035Z AUTO 32010KT 10SM SCT075 12/02 A3024 RMK AO2 T01230023
KHSG 230015Z AUTO 32008KT 10SM SCT085 BKN110 13/04 A3024 RMK AO2 T01280040
KHSG 222355Z AUTO 32010KT 10SM SCT080 BKN110 13/05 A3024 RMK AO2 T01290053 10138 20059
KHSG 222335Z AUTO 32010G17KT 10SM SCT046 SCT060 BKN080 13/04 A3024 RMK AO2 T01310044
KHSG 222315Z AUTO 33010KT 10SM SCT040 SCT060 SCT120 12/04 A3025 RMK AO2 T01190043
KHSG 222255Z AUTO 32009G25KT 10SM SCT042 SCT050 SCT070 12/04 A3025 RMK AO2 T01220042
KHSG 222235Z AUTO 28013KT 10SM SCT044 BKN120 13/04 A3025 RMK AO2 LTG DSNT SE T01290041
KHSG 222215Z AUTO 32006G16KT 10SM BKN120 13/04 A3025 RMK AO2 T01320038
KHSG 222155Z AUTO 30013G20KT 10SM SCT050 BKN120 11/03 A3025 RMK AO2 LTG DSNT SE T01100029
KHSG 222135Z AUTO 27011G25KT 10SM SCT033 SCT050 BKN120 10/04 A3025 RMK AO2 T00980039
KHSG 222115Z AUTO 27017G24KT 10SM SCT033 SCT050 OVC075 10/04 A3024 RMK AO2 T00980044
KHSG 222055Z AUTO 27018G24KT 10SM SCT060 SCT070 OVC085 10/05 A3026 RMK AO2 LTG DSNT SE T01000052
KHSG 222035Z AUTO 27015G24KT 10SM SCT060 OVC075 09/05 A3026 RMK AO2 LTG DSNT N T00890048
KHSG 222015Z AUTO 27013G20KT 10SM VCTS BKN060 OVC075 07/04 A3026 RMK AO2 LTG DSNT N THRU SE T00720042
KHSG 221955Z AUTO 26017G22KT 10SM SCT048 BKN060 OVC070 07/04 A3025 RMK AO2 T00730043
KHSG 221935Z AUTO 27010G15KT 10SM SCT046 OVC055 07/05 A3026 RMK AO2 T00730045
KHSG 221915Z AUTO 27014G22KT 10SM SCT034 BKN046 OVC065 07/04 A3026 RMK AO2 T00690042
KHSG 221855Z AUTO 28011G17KT 10SM -RA SCT012 BKN030 OVC045 06/04 A3025 RMK AO2 T00620039
KHSG 221835Z AUTO 35015G26KT 5SM RA BKN014 OVC021 06/04 A3029 RMK AO2 T00600040
KHSG 221815Z AUTO 36018G26KT 4SM RA BKN014 OVC022 07/05 A3027 RMK AO2 T00650052
KHSG 221755Z AUTO 35015G24KT 7SM -RA SCT014 BKN025 OVC035 07/05 A3026 RMK AO2 LTG DSNT E T00700051 10139 20070
KHSG 221735Z AUTO 35020G27KT 10SM SCT030 OVC037 09/04 A3025 RMK AO2 T00850041
KHSG 221715Z AUTO 36020G29KT 10SM BKN034 OVC042 10/03 A3023 RMK AO2 T01000031
KHSG 221655Z AUTO 35018G26KT 10SM BKN035 BKN042 OVC090 11/04 A3023 RMK AO2 T01100037
KHSG 221635Z AUTO 36016G23KT 10SM SCT035 SCT042 BKN085 12/04 A3022 RMK AO2 LTG DSNT E T01170037
KHSG 221615Z AUTO 36016G25KT 10SM BKN120 11/03 A3021 RMK AO2 LTG DSNT E T01130032
KHSG 221555Z AUTO 36017G21KT 10SM SCT110 13/03 A3020 RMK AO2 T01330032
KHSG 221535Z AUTO 35018G22KT 10SM SCT110 13/03 A3020 RMK AO2 T01330028
KHSG 221515Z AUTO 35019G29KT 10SM OVC100 13/02 A3020 RMK AO2 LTG DSNT NE T01300021
KHSG 221455Z AUTO 35017G20KT 10SM OVC100 12/02 A3019 RMK AO2 LTG DSNT NE T01240020
KHSG 221435Z AUTO 34020G26KT 10SM BKN090 OVC110 14/02 A3019 RMK AO2 T01390016
KHSG 221415Z AUTO 32011G16KT 10SM SCT090 OVC110 13/01 A3018 RMK AO2 T01330013
KHSG 221355Z AUTO 28008G14KT 10SM SCT085 OVC110 11/03 A3018 RMK AO2 T01140025
KHSG 221335Z AUTO 28007KT 10SM OVC120 11/02 A3018 RMK AO2 T01130023
KHSG 221315Z AUTO 29012G20KT 10SM SCT095 OVC110 12/00 A3017 RMK AO2 T01191002
KHSG 221255Z AUTO 30012G19KT 10SM BKN090 OVC110 11/M01 A3016 RMK AO2 T01101010
KHSG 221235Z AUTO 28012KT 10SM BKN110 10/M01 A3016 RMK AO2 T00981011
KHSG 221215Z AUTO 27012KT 10SM CLR 09/M01 A3016 RMK AO2 T00851009
KHSG 221155Z AUTO 27012KT 10SM CLR 08/M01 A3016 RMK AO2 T00791007 10085 20045
KHSG 221135Z AUTO 27013KT 10SM CLR 08/00 A3016 RMK AO2 T00760000
KHSG 221115Z AUTO 27009KT 10SM SCT100 05/01 A3017 RMK AO2 T00490010
KHSG 221055Z AUTO 25003KT 10SM BKN100 BKN120 06/01 A3018 RMK AO2 T00580012
KHSG 221035Z AUTO 24004KT 10SM OVC100 07/02 A3018 RMK AO2 T00710017
KHSG 221015Z AUTO 26009KT 10SM OVC090 08/01 A3018 RMK AO2 T00830012
KHSG 220955Z AUTO 26008KT 10SM BKN090 07/01 A3018 RMK AO2 T00680011
KHSG 220935Z AUTO 32004KT 10SM SCT090 07/01 A3019 RMK AO2 T00660008
KHSG 220915Z AUTO 25008KT 10SM CLR 07/01 A3019 RMK AO2 T00730005
KHSG 220855Z AUTO 26010KT 10SM CLR 08/01 A3020 RMK AO2 T00750006
KHSG 220835Z AUTO 25009KT 10SM SCT100 07/01 A3020 RMK AO2 T00730007
KHSG 220815Z AUTO 26009KT 10SM CLR 08/01 A3020 RMK AO2 T00770007
KHSG 220755Z AUTO 26011KT 10SM CLR 07/01 A3021 RMK AO2 T00730010
KHSG 220735Z AUTO 26012KT 10SM CLR 07/01 A3021 RMK AO2 T00700011
KHSG 220715Z AUTO 27012KT 10SM CLR 07/01 A3022 RMK AO2 T00740010
KHSG 220655Z AUTO 27011KT 10SM CLR 07/01 A3022 RMK AO2 T00710013 401730040
KHSG 220635Z AUTO 27010KT 10SM SCT100 08/02 A3022 RMK AO2 T00750017
KHSG 220615Z AUTO 27010KT 10SM SCT110 08/02 A3023 RMK AO2 T00750016
KHSG 220555Z AUTO 27011KT 10SM CLR 07/01 A3023 RMK AO2 T00660011 10167 20040
KHSG 220535Z AUTO 28010KT 10SM SCT100 07/01 A3023 RMK AO2 T00680011
KHSG 220515Z AUTO 27009KT 10SM SCT100 05/01 A3023 RMK AO2 T00460009
KHSG 220455Z AUTO 28007KT 10SM SCT080 BKN100 05/02 A3024 RMK AO2 T00450015
KHSG 220435Z AUTO 27009KT 10SM SCT080 05/02 A3024 RMK AO2 T00510016
KHSG 220415Z AUTO 30006KT 10SM CLR 05/01 A3024 RMK AO2 T00530011
KHSG 220355Z AUTO 31004KT 10SM CLR 06/00 A3024 RMK AO2 T00620003
KHSG 220335Z AUTO 31003KT 10SM CLR 08/00 A3023 RMK AO2 T00760002
KHSG 220315Z AUTO 33005KT 10SM CLR 08/00 A3022 RMK AO2 T00770001
KHSG 220255Z AUTO 33005KT 10SM CLR 08/00 A3022 RMK AO2 T00800003
KHSG 220235Z AUTO 32005KT 10SM CLR 09/01 A3021 RMK AO2 T00900005
KHSG 220215Z AUTO 33006KT 10SM CLR 11/00 A3020 RMK AO2 LTG DSNT S T01060003
KHSG 220155Z AUTO 33007G14KT 310V010 10SM CLR 13/M01 A3020 RMK AO2 T01331011
KHSG 220135Z AUTO 32010KT 10SM CLR 14/M02 A3019 RMK AO2 T01441022
KHSG 220115Z AUTO 32009KT 10SM CLR 15/M02 A3019 RMK AO2 LTG DSNT S T01501019
KHSG 220055Z AUTO 33011G16KT 10SM CLR 16/M02 A3019 RMK AO2 T01561016
KHSG 220035Z AUTO 32011G16KT 10SM SCT085 16/M01 A3019 RMK AO2 LTG DSNT S T01601009
KHSG 220015Z AUTO 31011G18KT 10SM SCT075 16/M01 A3019 RMK AO2 LTG DSNT SW T01621012
KHSG 212355Z AUTO 34011G18KT 310V010 10SM SCT075 16/00 A3019 RMK AO2 LTG DSNT S T01610000 10173 20135
KHSG 212335Z AUTO 01010G16KT 10SM SCT075 SCT085 17/00 A3018 RMK AO2 LTG DSNT S T01650001
KHSG 212315Z AUTO 01012G17KT 310V020 10SM SCT085 SCT090 17/02 A3018 RMK AO2 T01700016
KHSG 212255Z AUTO 01013G19KT 10SM SCT080 17/02 A3019 RMK AO2 LTG DSNT S T01670020
KHSG 212235Z AUTO 01012G17KT 10SM VCTS SCT080 15/01 A3019 RMK AO2 T01500009
KHSG 212215Z AUTO 36012G18KT 310V020 10SM SCT080 17/00 A3019 RMK AO2 LTG DSNT S T01700004
KHSG 212155Z AUTO 36014G22KT 10SM SCT080 17/00 A3019 RMK AO2 T01661001
KHSG 212135Z AUTO 34010G17KT 310V010 10SM CLR 17/00 A3019 RMK AO2 LTG DSNT S AND SW T01661002
KHSG 212115Z AUTO 34016G20KT 10SM SCT070 SCT100 16/00 A3020 RMK AO2 LTG DSNT S T01630003
KHSG 212055Z AUTO 36010G18KT 310V020 10SM BKN070 BKN100 15/02 A3020 RMK AO2 T01540018
KHSG 212035Z AUTO 32007KT 10SM BKN070 BKN080 BKN100 16/01 A3020 RMK AO2 LTG DSNT SW T01560012
KHSG 212015Z AUTO 31008KT 10SM BKN055 BKN075 OVC100 15/01 A3021 RMK AO2 T01510014
KHSG 211955Z AUTO 33005KT 10SM SCT055 BKN075 OVC100 14/02 A3022 RMK AO2 T01390017
KHSG 211935Z AUTO 35007G17KT 10SM SCT055 SCT070 BKN100 15/02 A3022 RMK AO2 T01490024
KHSG 211915Z AUTO 33009G17KT 10SM SCT050 SCT060 BKN100 15/02 A3022 RMK AO2 T01480024
KHSG 211855Z AUTO 33007G16KT 310V010 10SM BKN050 BKN080 OVC100 15/02 A3023 RMK AO2 T01480022
KHSG 211835Z AUTO 32006G17KT 10SM TS SCT055 SCT070 BKN100 15/03 A3023 RMK AO2 T01490027
KHSG 211815Z AUTO 33009G14KT 10SM SCT049 SCT095 14/02 A3023 RMK AO2 T01430024
KHSG 211755Z AUTO 33014G18KT 10SM BKN049 BKN095 15/03 A3023 RMK AO2 T01460030 10146 20075
KHSG 211735Z AUTO 35009G16KT 10SM SCT049 BKN060 OVC095 14/03 A3024 RMK AO2 T01390028
KHSG 211715Z AUTO 36005KT 10SM SCT048 SCT070 OVC095 13/03 A3024 RMK AO2 T01260034


Page loaded:  05:08 UTC  |   10:08 PM Pacific  |   11:08 PM Mountain  |   12:08 AM Central  |   01:08 AM Eastern

 

ADVISORIES

FORECASTS

FORECASTS

OBSERVATIONS

USER TOOLS

ABOUT US